Time;durP1;ratioP1;P1;durP2;ratioP2;P2;SDS_P1;SDS_P2;PMS_P1;PMS_P2;Temp;Humidity;BMP_temperature;BMP_pressure;BME280_temperature;BME280_humidity;BME280_pressure;Samples;Min_cycle;Max_cycle;Signal;HPM_P1;HPM_P2
2022/03/11 00:02:22;;;;;;;1.97;1.53;;;6.00;99.90;;;;;;5070432;28;20223;-72
2022/03/11 00:04:48;;;;;;;2.47;1.37;;;6.10;99.90;;;;;;5071258;28;20188;-72
2022/03/11 00:07:15;;;;;;;3.13;1.57;;;6.00;99.90;;;;;;5052841;28;20180;-73
2022/03/11 00:09:41;;;;;;;1.03;1.03;;;6.10;99.90;;;;;;5053029;28;20187;-72
2022/03/11 00:12:07;;;;;;;0.97;0.97;;;6.30;99.90;;;;;;5070628;28;20291;-73
2022/03/11 00:14:34;;;;;;;0.63;0.63;;;6.20;99.90;;;;;;5070928;28;20184;-73
2022/03/11 00:17:00;;;;;;;0.97;0.87;;;6.20;99.90;;;;;;5070637;28;20575;-73
2022/03/11 00:19:25;;;;;;;0.97;0.93;;;6.30;99.90;;;;;;5071035;28;20215;-73
2022/03/11 00:21:51;;;;;;;3.20;1.63;;;6.40;99.90;;;;;;5069777;28;20676;-73
2022/03/11 00:24:17;;;;;;;0.57;0.57;;;6.30;99.90;;;;;;5052893;28;20181;-73
2022/03/11 00:26:42;;;;;;;2.53;1.43;;;6.30;99.90;;;;;;5070867;28;20528;-72
2022/03/11 00:29:08;;;;;;;1.70;1.70;;;6.40;99.90;;;;;;5070841;28;20215;-72
2022/03/11 00:31:33;;;;;;;1.97;1.77;;;6.30;99.90;;;;;;5070204;28;20196;-72
2022/03/11 00:33:59;;;;;;;4.80;2.17;;;6.40;99.90;;;;;;5071111;28;20192;-72
2022/03/11 00:36:25;;;;;;;1.47;1.13;;;6.40;99.90;;;;;;5074507;28;20173;-72
2022/03/11 00:38:50;;;;;;;13.73;1.80;;;6.30;99.90;;;;;;5056425;28;20211;-72
2022/03/11 00:41:17;;;;;;;1.17;1.10;;;6.40;99.90;;;;;;5074098;28;20196;-70
2022/03/11 00:43:42;;;;;;;1.03;1.03;;;6.30;99.90;;;;;;5074475;28;20271;-72
2022/03/11 00:46:08;;;;;;;1.37;1.03;;;6.20;99.90;;;;;;5074283;28;20255;-72
2022/03/11 00:48:34;;;;;;;1.10;1.10;;;6.30;99.90;;;;;;5074008;28;20180;-72
2022/03/11 00:50:59;;;;;;;0.83;0.83;;;6.10;99.90;;;;;;5074060;28;20213;-72
2022/03/11 00:53:25;;;;;;;1.70;1.60;;;6.10;99.90;;;;;;5073791;28;20180;-73
2022/03/11 00:55:51;;;;;;;0.77;0.77;;;6.10;99.90;;;;;;5074166;28;20207;-72
2022/03/11 00:58:16;;;;;;;1.80;1.70;;;6.10;99.90;;;;;;5056299;28;20250;-72
2022/03/11 01:00:42;;;;;;;1.67;1.57;;;6.10;99.90;;;;;;5074990;28;20216;-73
2022/03/11 01:03:07;;;;;;;2.00;1.83;;;5.90;99.90;;;;;;5056940;28;20176;-71
2022/03/11 01:05:33;;;;;;;7.43;1.70;;;5.70;99.90;;;;;;5075049;28;20172;-72
2022/03/11 01:07:59;;;;;;;0.50;0.50;;;5.80;99.90;;;;;;5056831;28;20196;-73
2022/03/11 01:10:25;;;;;;;2.47;2.30;;;6.00;99.90;;;;;;5075237;28;20188;-73
2022/03/11 01:12:51;;;;;;;2.93;2.13;;;5.90;99.90;;;;;;5073763;28;20563;-72
2022/03/11 01:15:17;;;;;;;1.80;1.07;;;5.90;99.90;;;;;;5055846;28;20185;-72
2022/03/11 01:17:42;;;;;;;1.40;1.40;;;5.90;99.90;;;;;;5073486;28;20180;-73
2022/03/11 01:20:10;;;;;;;1.90;1.17;;;5.90;99.90;;;;;;5078977;28;20547;-73
2022/03/11 01:22:36;;;;;;;3.30;1.17;;;5.90;99.90;;;;;;5093700;28;20760;-72
2022/03/11 01:25:02;;;;;;;5.07;3.80;;;5.90;99.90;;;;;;5094134;28;20241;-72
2022/03/11 01:27:28;;;;;;;0.57;0.57;;;5.90;99.90;;;;;;5093940;28;20555;-73
2022/03/11 01:29:53;;;;;;;0.70;0.70;;;5.90;99.90;;;;;;5093853;28;20182;-73
2022/03/11 01:32:19;;;;;;;4.10;2.00;;;5.90;99.90;;;;;;5093293;28;20192;-72
2022/03/11 01:34:44;;;;;;;0.97;0.97;;;5.80;99.90;;;;;;5075556;28;20187;-72
2022/03/11 01:37:10;;;;;;;1.03;1.03;;;5.80;99.90;;;;;;5094098;28;20176;-73
2022/03/11 01:39:35;;;;;;;1.43;1.37;;;5.80;99.90;;;;;;5075283;28;20230;-73
2022/03/11 01:42:01;;;;;;;1.70;1.37;;;5.60;99.90;;;;;;5075005;28;20253;-73
2022/03/11 01:44:27;;;;;;;0.70;0.70;;;5.50;99.90;;;;;;5093371;28;20869;-73
2022/03/11 01:46:53;;;;;;;4.93;1.83;;;5.40;99.90;;;;;;5092420;28;20186;-73
2022/03/11 01:49:19;;;;;;;5.80;2.00;;;5.20;99.90;;;;;;5093397;28;20651;-73
2022/03/11 01:51:45;;;;;;;0.20;0.13;;;5.10;99.90;;;;;;5093259;28;20258;-73
2022/03/11 01:54:11;;;;;;;0.87;0.87;;;5.00;99.90;;;;;;5093361;28;20229;-73
2022/03/11 01:56:38;;;;;;;2.43;2.23;;;4.90;99.90;;;;;;5093209;28;20180;-72
2022/03/11 01:59:05;;;;;;;2.23;0.87;;;5.10;99.90;;;;;;5087999;28;20750;-72
2022/03/11 02:01:30;;;;;;;0.50;0.50;;;5.20;99.90;;;;;;5099567;22;20220;-74
2022/03/11 02:03:59;;;;;;;0.80;0.80;;;5.00;99.90;;;;;;5086741;28;20843;-73
2022/03/11 02:06:26;;;;;;;2.20;1.93;;;4.80;99.90;;;;;;5092654;28;20176;-73
2022/03/11 02:08:53;;;;;;;0.67;0.60;;;4.70;99.90;;;;;;5074736;28;20589;-73
2022/03/11 02:11:18;;;;;;;2.93;1.33;;;4.80;99.90;;;;;;5092483;28;20192;-72
2022/03/11 02:13:49;;;;;;;2.20;2.00;;;4.80;99.90;;;;;;5092756;28;20187;-73
2022/03/11 02:16:32;;;;;;;1.20;1.20;;;4.80;99.90;;;;;;5092583;28;20262;-73
2022/03/11 02:18:59;;;;;;;2.40;2.20;;;4.90;99.90;;;;;;5092627;28;20716;-73
2022/03/11 02:21:27;;;;;;;7.80;3.63;;;4.80;99.90;;;;;;5092260;28;20332;-73
2022/03/11 02:23:58;;;;;;;1.10;1.00;;;4.90;99.90;;;;;;5074391;28;20172;-73
2022/03/11 02:26:26;;;;;;;0.93;0.90;;;4.80;99.90;;;;;;5092468;28;20179;-73
2022/03/11 02:28:53;;;;;;;4.77;3.33;;;4.80;99.90;;;;;;5092566;28;20180;-74
2022/03/11 02:31:21;;;;;;;1.03;1.03;;;4.90;99.90;;;;;;5073889;28;20206;-74
2022/03/11 02:33:46;;;;;;;0.83;0.83;;;4.90;99.90;;;;;;5092474;28;20171;-74
2022/03/11 02:36:12;;;;;;;1.00;1.00;;;5.10;99.90;;;;;;5074137;28;20188;-73
2022/03/11 02:38:38;;;;;;;1.80;1.43;;;5.10;99.90;;;;;;5092167;28;20274;-74
2022/03/11 02:41:04;;;;;;;2.10;1.53;;;5.00;99.90;;;;;;5091970;28;20183;-74
2022/03/11 02:43:29;;;;;;;1.53;1.43;;;4.80;99.90;;;;;;5073862;28;20179;-74
2022/03/11 02:45:55;;;;;;;0.67;0.57;;;4.80;99.90;;;;;;5092093;28;20252;-74
2022/03/11 02:48:20;;;;;;;0.70;0.70;;;4.70;99.90;;;;;;5092313;28;20187;-73
2022/03/11 02:50:47;;;;;;;0.87;0.87;;;4.80;99.90;;;;;;5091923;28;20175;-72
2022/03/11 02:53:13;;;;;;;0.93;0.93;;;4.80;99.90;;;;;;5073659;28;20176;-74
2022/03/11 02:55:38;;;;;;;2.40;2.20;;;4.80;99.90;;;;;;5073565;28;20543;-74
2022/03/11 02:58:04;;;;;;;3.77;1.53;;;4.80;99.90;;;;;;5092087;28;20191;-75
2022/03/11 03:00:29;;;;;;;1.90;1.47;;;4.80;99.90;;;;;;5092270;28;20186;-75
2022/03/11 03:02:55;;;;;;;1.70;1.13;;;4.70;99.90;;;;;;5091831;28;20215;-75
2022/03/11 03:05:20;;;;;;;1.20;1.17;;;4.70;99.90;;;;;;5092203;28;20183;-76
2022/03/11 03:07:46;;;;;;;3.23;1.97;;;4.80;99.90;;;;;;5092095;28;20178;-75
2022/03/11 03:10:11;;;;;;;5.93;1.90;;;4.80;99.90;;;;;;5092123;28;20189;-76
2022/03/11 03:12:38;;;;;;;3.17;2.30;;;4.60;99.90;;;;;;5082195;28;20195;-75
2022/03/11 03:15:07;;;;;;;2.07;1.97;;;4.60;99.90;;;;;;5095887;28;20262;-75
2022/03/11 03:17:34;;;;;;;3.27;2.47;;;4.60;99.90;;;;;;5091974;28;20214;-75
2022/03/11 03:19:59;;;;;;;0.40;0.40;;;4.80;99.90;;;;;;5073975;28;20219;-76
2022/03/11 03:22:25;;;;;;;2.53;2.33;;;4.90;99.90;;;;;;5073324;28;20800;-73
2022/03/11 03:24:51;;;;;;;3.23;2.97;;;4.80;99.90;;;;;;5091253;28;20181;-73
2022/03/11 03:27:17;;;;;;;0.20;0.20;;;4.70;99.90;;;;;;5091753;28;20183;-73
2022/03/11 03:29:43;;;;;;;1.43;1.43;;;4.70;99.90;;;;;;5091525;28;20274;-74
2022/03/11 03:32:09;;;;;;;0.50;0.50;;;4.80;99.90;;;;;;5091260;28;20778;-74
2022/03/11 03:34:36;;;;;;;2.30;2.20;;;4.70;99.90;;;;;;5091429;28;20579;-74
2022/03/11 03:37:07;;;;;;;6.43;0.47;;;4.70;99.90;;;;;;5091430;28;20183;-73
2022/03/11 03:39:33;;;;;;;2.63;2.43;;;4.60;99.90;;;;;;5091117;28;20187;-73
2022/03/11 03:41:58;;;;;;;0.50;0.50;;;4.50;99.90;;;;;;5091084;28;20200;-72
2022/03/11 03:44:24;;;;;;;1.50;1.30;;;4.50;99.90;;;;;;5073204;28;20604;-73
2022/03/11 03:46:50;;;;;;;1.80;1.70;;;4.70;99.90;;;;;;5091441;28;20663;-74
2022/03/11 03:49:15;;;;;;;1.03;0.80;;;4.60;99.90;;;;;;5073175;28;20175;-73
2022/03/11 03:51:42;;;;;;;6.60;2.93;;;4.60;99.90;;;;;;5090890;28;20191;-73
2022/03/11 03:54:11;;;;;;;0.83;0.83;;;4.60;99.90;;;;;;5072929;28;20665;-73
2022/03/11 03:56:38;;;;;;;0.30;0.30;;;4.50;99.90;;;;;;5091272;28;20264;-73
2022/03/11 03:59:05;;;;;;;1.60;1.30;;;4.70;99.90;;;;;;5091076;28;20206;-73
2022/03/11 04:01:34;;;;;;;0.90;0.90;;;4.70;99.90;;;;;;5090708;28;20206;-74
2022/03/11 04:04:00;;;;;;;1.20;1.07;;;4.70;99.90;;;;;;5091148;28;20180;-73
2022/03/11 04:06:27;;;;;;;1.07;1.07;;;4.60;99.90;;;;;;5091049;28;20172;-74
2022/03/11 04:08:54;;;;;;;0.47;0.47;;;4.90;99.90;;;;;;5073340;28;20190;-73
2022/03/11 04:11:20;;;;;;;1.67;1.57;;;4.70;99.90;;;;;;5076792;28;20207;-72
2022/03/11 04:13:46;;;;;;;1.47;1.40;;;4.70;99.90;;;;;;5095021;28;20223;-73
2022/03/11 04:16:11;;;;;;;1.40;1.30;;;4.80;99.90;;;;;;5076912;28;20191;-73
2022/03/11 04:18:37;;;;;;;0.10;0.10;;;4.70;99.90;;;;;;5076794;28;20207;-73
2022/03/11 04:21:02;;;;;;;0.60;0.60;;;4.50;99.90;;;;;;5094745;28;20213;-74
2022/03/11 04:23:28;;;;;;;0.30;0.30;;;4.60;99.90;;;;;;5094811;28;20258;-74
2022/03/11 04:25:53;;;;;;;2.43;2.33;;;4.60;99.90;;;;;;5094934;28;20176;-72
2022/03/11 04:28:19;;;;;;;1.33;0.83;;;4.60;99.90;;;;;;5094886;28;20205;-72
2022/03/11 04:30:44;;;;;;;0.40;0.40;;;4.40;99.90;;;;;;5076587;28;20561;-72
2022/03/11 04:33:10;;;;;;;1.33;1.30;;;4.40;99.90;;;;;;5094375;28;20208;-72
2022/03/11 04:35:35;;;;;;;1.43;1.33;;;4.40;99.90;;;;;;5094607;28;20260;-72
2022/03/11 04:38:02;;;;;;;0.50;0.50;;;4.30;99.90;;;;;;5094387;28;20240;-71
2022/03/11 04:40:27;;;;;;;0.97;0.93;;;4.20;99.90;;;;;;5094587;28;20176;-72
2022/03/11 04:42:53;;;;;;;0.47;0.47;;;4.20;99.90;;;;;;5094154;28;20199;-73
2022/03/11 04:45:18;;;;;;;3.33;2.40;;;4.10;99.90;;;;;;5076389;28;20590;-72
2022/03/11 04:47:44;;;;;;;0.87;0.87;;;4.00;99.90;;;;;;5094472;28;20654;-72
2022/03/11 04:50:09;;;;;;;2.00;1.90;;;4.00;99.90;;;;;;5094431;28;20257;-72
2022/03/11 04:52:35;;;;;;;0.80;0.50;;;4.10;99.90;;;;;;5093828;28;20207;-72
2022/03/11 04:55:02;;;;;;;3.10;0.60;;;4.10;99.90;;;;;;5094403;28;20174;-72
2022/03/11 04:57:27;;;;;;;2.43;1.80;;;4.20;99.90;;;;;;5076215;28;20278;-71
2022/03/11 04:59:53;;;;;;;1.60;1.47;;;4.20;99.90;;;;;;5094091;28;20290;-73
2022/03/11 05:02:28;;;;;;;4.27;2.43;;;4.20;99.90;;;;;;5093714;28;20219;-73
2022/03/11 05:04:54;;;;;;;7.13;2.97;;;4.20;99.90;;;;;;5093935;28;20183;-70
2022/03/11 05:07:19;;;;;;;1.93;1.67;;;4.20;99.90;;;;;;5093930;28;20172;-73
2022/03/11 05:09:46;;;;;;;1.27;1.20;;;4.20;99.90;;;;;;5094152;28;20217;-72
2022/03/11 05:12:14;;;;;;;1.37;1.27;;;4.10;99.90;;;;;;5093696;28;20203;-73
2022/03/11 05:14:40;;;;;;;3.43;1.70;;;4.00;99.90;;;;;;5093912;28;20168;-73
2022/03/11 05:17:05;;;;;;;0.90;0.90;;;4.00;99.90;;;;;;5093863;28;20220;-72
2022/03/11 05:19:31;;;;;;;1.70;1.60;;;3.90;99.90;;;;;;5093706;28;20218;-73
2022/03/11 05:21:57;;;;;;;0.60;0.60;;;3.90;99.90;;;;;;5092099;28;20194;-73
2022/03/11 05:24:23;;;;;;;4.33;2.47;;;3.80;99.90;;;;;;5093858;28;20205;-73
2022/03/11 05:26:48;;;;;;;3.20;2.90;;;3.90;99.90;;;;;;5093718;28;20253;-72
2022/03/11 05:29:15;;;;;;;5.00;2.40;;;3.80;99.90;;;;;;5093636;28;20253;-72
2022/03/11 05:31:41;;;;;;;4.43;1.77;;;3.80;99.90;;;;;;5093187;28;20586;-73
2022/03/11 05:34:07;;;;;;;1.83;1.37;;;4.00;99.90;;;;;;5093525;28;20174;-72
2022/03/11 05:36:33;;;;;;;2.17;2.07;;;4.00;99.90;;;;;;5075322;28;20540;-72
2022/03/11 05:38:58;;;;;;;5.03;3.57;;;3.90;99.90;;;;;;5093433;28;20207;-72
2022/03/11 05:41:24;;;;;;;1.30;1.27;;;3.90;99.90;;;;;;5075184;28;20191;-73
2022/03/11 05:43:49;;;;;;;6.07;3.90;;;3.90;99.90;;;;;;5094260;28;20285;-72
2022/03/11 05:46:15;;;;;;;2.67;2.47;;;4.00;99.90;;;;;;5093507;28;20695;-73
2022/03/11 05:48:41;;;;;;;1.80;1.70;;;4.00;99.90;;;;;;5093283;28;20198;-73
2022/03/11 05:51:07;;;;;;;2.87;2.47;;;4.00;99.90;;;;;;5093320;28;20211;-72
2022/03/11 05:53:32;;;;;;;1.70;1.60;;;4.10;99.90;;;;;;5094293;28;20209;-73
2022/03/11 05:55:58;;;;;;;2.97;1.33;;;4.00;99.90;;;;;;5090920;28;20185;-74
2022/03/11 05:58:23;;;;;;;3.70;2.60;;;3.90;99.90;;;;;;5090365;28;20205;-73
2022/03/11 06:00:49;;;;;;;2.93;2.63;;;3.90;99.90;;;;;;5095104;28;20257;-74
2022/03/11 06:03:15;;;;;;;1.23;1.13;;;3.70;99.90;;;;;;5098899;28;20273;-75
2022/03/11 06:05:41;;;;;;;0.57;0.57;;;3.70;99.90;;;;;;5073747;28;20180;-75
2022/03/11 06:08:06;;;;;;;1.27;1.17;;;3.80;99.90;;;;;;5092224;28;20651;-75
2022/03/11 06:10:32;;;;;;;0.83;0.83;;;3.70;99.90;;;;;;5073844;28;20185;-74
2022/03/11 06:12:57;;;;;;;1.43;1.33;;;3.70;99.90;;;;;;5073208;28;20190;-75
2022/03/11 06:15:23;;;;;;;1.63;1.63;;;3.60;99.90;;;;;;5073606;28;20733;-75
2022/03/11 06:17:48;;;;;;;1.73;1.63;;;3.50;99.90;;;;;;5073524;28;20184;-74
2022/03/11 06:20:14;;;;;;;0.77;0.77;;;3.60;99.90;;;;;;5092170;28;20205;-75
2022/03/11 06:22:48;;;;;;;2.30;1.70;;;3.60;99.90;;;;;;5084332;28;20259;-75
2022/03/11 06:25:14;;;;;;;1.70;1.20;;;3.60;99.90;;;;;;5068652;28;20264;-75
2022/03/11 06:27:39;;;;;;;1.03;1.03;;;3.80;99.90;;;;;;5073296;28;20269;-76
2022/03/11 06:30:06;;;;;;;4.60;2.67;;;3.70;99.90;;;;;;5091636;28;20186;-75
2022/03/11 06:32:31;;;;;;;0.93;0.93;;;3.70;99.90;;;;;;5097363;28;20232;-74
2022/03/11 06:34:57;;;;;;;1.20;0.77;;;3.70;99.90;;;;;;5091647;28;20271;-74
2022/03/11 06:37:23;;;;;;;0.83;0.83;;;3.80;99.90;;;;;;5085063;28;20185;-74
2022/03/11 06:39:49;;;;;;;1.07;1.07;;;3.80;99.90;;;;;;5091374;28;20221;-74
2022/03/11 06:42:14;;;;;;;2.97;2.73;;;3.90;99.90;;;;;;5088553;28;20209;-74
2022/03/11 06:44:40;;;;;;;3.60;3.17;;;4.00;99.90;;;;;;5090868;28;20220;-76
2022/03/11 06:47:05;;;;;;;3.53;2.50;;;4.10;99.90;;;;;;5091522;28;20190;-76
2022/03/11 06:49:31;;;;;;;0.80;0.80;;;4.10;99.90;;;;;;5073689;28;20190;-76
2022/03/11 06:51:56;;;;;;;0.47;0.47;;;4.20;99.90;;;;;;5090634;28;20203;-75
2022/03/11 06:54:22;;;;;;;1.93;1.83;;;4.20;99.90;;;;;;5073237;28;20176;-75
2022/03/11 06:56:47;;;;;;;4.80;1.77;;;4.30;99.90;;;;;;5091400;28;20172;-77
2022/03/11 06:59:13;;;;;;;2.83;1.13;;;4.30;99.90;;;;;;5091299;28;20207;-75
2022/03/11 07:01:39;;;;;;;8.40;2.87;;;4.40;99.90;;;;;;5090752;28;20219;-77
2022/03/11 07:04:04;;;;;;;1.40;0.87;;;4.50;99.90;;;;;;5093030;28;20551;-75
2022/03/11 07:06:30;;;;;;;3.27;1.47;;;4.50;99.90;;;;;;5101695;28;20183;-77
2022/03/11 07:08:55;;;;;;;1.60;0.93;;;4.50;99.90;;;;;;5100283;28;20183;-76
2022/03/11 07:11:21;;;;;;;4.60;2.63;;;4.60;99.90;;;;;;5090946;28;20203;-77
2022/03/11 07:13:46;;;;;;;1.87;1.77;;;4.60;99.90;;;;;;5105952;28;20184;-78
2022/03/11 07:16:13;;;;;;;1.93;1.77;;;4.70;99.90;;;;;;5077844;28;20240;-76
2022/03/11 07:18:38;;;;;;;1.73;1.27;;;4.80;99.90;;;;;;5091408;28;20286;-74
2022/03/11 07:21:04;;;;;;;2.40;2.30;;;4.80;99.90;;;;;;5090927;28;20614;-75
2022/03/11 07:23:30;;;;;;;7.73;2.57;;;4.90;99.90;;;;;;5091000;28;20211;-75
2022/03/11 07:25:55;;;;;;;1.80;1.70;;;5.00;99.90;;;;;;5094725;28;20195;-73
2022/03/11 07:28:21;;;;;;;12.63;3.07;;;5.00;99.90;;;;;;5091993;28;20761;-75
2022/03/11 07:30:47;;;;;;;0.93;0.93;;;5.10;99.90;;;;;;5104607;28;20179;-74
2022/03/11 07:33:12;;;;;;;3.70;2.57;;;5.20;99.90;;;;;;5092542;28;20182;-76
2022/03/11 07:35:38;;;;;;;1.90;1.67;;;5.30;99.90;;;;;;5072536;28;20179;-76
2022/03/11 07:38:05;;;;;;;3.47;3.17;;;5.40;99.90;;;;;;5090672;28;20178;-77
2022/03/11 07:40:31;;;;;;;3.23;3.03;;;5.50;99.90;;;;;;5093197;28;20599;-76
2022/03/11 07:42:57;;;;;;;4.97;3.70;;;5.60;99.90;;;;;;5091122;28;20198;-76
2022/03/11 07:45:22;;;;;;;1.63;1.60;;;5.70;99.90;;;;;;5101595;28;20523;-75
2022/03/11 07:47:48;;;;;;;9.10;2.73;;;5.80;99.90;;;;;;5101433;28;20178;-75
2022/03/11 07:50:14;;;;;;;4.97;3.57;;;5.80;99.90;;;;;;5090196;28;20183;-74
2022/03/11 07:52:40;;;;;;;7.70;3.60;;;5.90;99.90;;;;;;5091415;28;20252;-72
2022/03/11 07:55:07;;;;;;;0.87;0.87;;;6.00;99.90;;;;;;5090357;28;20542;-73
2022/03/11 07:57:36;;;;;;;0.63;0.63;;;6.10;99.90;;;;;;5090605;28;20180;-73
2022/03/11 08:00:06;;;;;;;5.33;3.63;;;6.10;99.90;;;;;;5097346;28;20752;-73
2022/03/11 08:02:32;;;;;;;4.90;3.03;;;6.30;99.90;;;;;;5110902;22;20219;-72
2022/03/11 08:04:58;;;;;;;3.03;1.83;;;6.30;99.90;;;;;;5091672;28;20266;-71
2022/03/11 08:07:23;;;;;;;10.13;4.00;;;6.30;99.90;;;;;;5093355;28;20242;-72
2022/03/11 08:09:49;;;;;;;4.60;3.83;;;6.40;99.90;;;;;;5092649;28;20181;-72
2022/03/11 08:12:15;;;;;;;2.30;2.20;;;6.40;99.90;;;;;;5072309;28;20192;-74
2022/03/11 08:14:40;;;;;;;2.27;2.03;;;6.50;99.90;;;;;;5073775;28;20197;-74
2022/03/11 08:17:06;;;;;;;2.90;1.90;;;6.40;99.90;;;;;;5060702;28;20705;-72
2022/03/11 08:19:32;;;;;;;4.33;2.30;;;6.40;99.90;;;;;;5073834;28;20207;-73
2022/03/11 08:21:58;;;;;;;2.50;2.33;;;6.50;99.90;;;;;;5073365;28;20200;-71
2022/03/11 08:24:24;;;;;;;4.00;3.40;;;6.50;99.90;;;;;;5072487;28;20570;-71
2022/03/11 08:26:50;;;;;;;3.17;2.87;;;6.50;99.90;;;;;;5071066;28;20230;-71
2022/03/11 08:29:17;;;;;;;3.93;3.63;;;6.60;99.90;;;;;;5072123;28;20180;-73
2022/03/11 08:31:43;;;;;;;1.90;1.70;;;6.70;99.90;;;;;;5060823;28;20606;-72
2022/03/11 08:34:09;;;;;;;6.30;3.50;;;6.80;99.90;;;;;;5076482;28;20180;-72
2022/03/11 08:36:35;;;;;;;2.83;2.50;;;6.90;99.90;;;;;;5072737;28;20196;-72
2022/03/11 08:39:00;;;;;;;1.60;1.50;;;6.90;99.90;;;;;;5072058;28;20652;-71
2022/03/11 08:41:27;;;;;;;8.07;5.87;;;6.80;99.90;;;;;;5054406;28;20172;-73
2022/03/11 08:43:53;;;;;;;5.50;4.33;;;6.90;99.90;;;;;;5072710;28;20224;-72
2022/03/11 08:46:18;;;;;;;11.80;5.03;;;6.90;99.90;;;;;;5078774;28;20218;-70
2022/03/11 08:48:44;;;;;;;1.97;1.80;;;6.90;99.90;;;;;;5071306;28;20184;-70
2022/03/11 08:51:10;;;;;;;6.90;2.67;;;7.10;99.90;;;;;;5072959;28;20178;-72
2022/03/11 08:53:36;;;;;;;2.77;2.63;;;7.20;99.90;;;;;;5077405;28;20204;-73
2022/03/11 08:56:02;;;;;;;18.80;6.57;;;7.30;99.90;;;;;;5073225;28;20227;-71
2022/03/11 08:58:28;;;;;;;5.70;2.10;;;7.40;99.90;;;;;;5058358;28;20243;-73
2022/03/11 09:00:54;;;;;;;4.37;2.80;;;7.40;99.90;;;;;;5075957;28;20204;-70
2022/03/11 09:03:19;;;;;;;2.17;2.03;;;7.50;99.90;;;;;;5055886;28;20224;-71
2022/03/11 09:05:45;;;;;;;6.27;3.87;;;7.60;99.90;;;;;;5058426;28;20181;-71
2022/03/11 09:08:10;;;;;;;3.57;3.00;;;7.80;99.90;;;;;;5076003;28;20580;-72
2022/03/11 09:10:36;;;;;;;3.80;3.47;;;7.90;99.90;;;;;;5057828;28;20679;-72
2022/03/11 09:13:02;;;;;;;3.10;2.93;;;7.90;99.90;;;;;;5072732;28;20192;-72
2022/03/11 09:15:28;;;;;;;2.40;2.20;;;8.20;99.90;;;;;;5065938;28;20255;-73
2022/03/11 09:17:54;;;;;;;4.40;4.00;;;8.00;99.90;;;;;;5085312;28;20215;-71
2022/03/11 09:20:19;;;;;;;5.10;4.60;;;8.00;99.90;;;;;;5066695;28;20203;-72
2022/03/11 09:22:45;;;;;;;2.63;2.23;;;8.20;99.90;;;;;;5089455;28;20184;-72
2022/03/11 09:25:12;;;;;;;6.73;2.73;;;8.20;99.90;;;;;;5057090;28;20555;-73
2022/03/11 09:27:39;;;;;;;3.03;2.83;;;8.20;99.90;;;;;;5059594;28;20179;-72
2022/03/11 09:30:07;;;;;;;7.07;2.83;;;8.30;99.90;;;;;;5065804;28;20654;-70
2022/03/11 09:32:34;;;;;;;1.43;1.33;;;8.40;99.90;;;;;;5075583;28;20204;-73
2022/03/11 09:34:59;;;;;;;5.13;2.03;;;8.40;99.90;;;;;;5061515;28;20230;-71
2022/03/11 09:37:27;;;;;;;7.00;3.20;;;8.60;99.90;;;;;;5076594;28;20168;-71
2022/03/11 09:39:53;;;;;;;5.07;3.27;;;8.80;99.90;;;;;;5067446;28;20196;-72
2022/03/11 09:42:19;;;;;;;2.80;2.00;;;9.00;99.90;;;;;;5075717;28;20203;-71
2022/03/11 09:44:55;;;;;;;2.70;2.07;;;9.00;99.90;;;;;;5057860;28;20225;-72
2022/03/11 09:47:21;;;;;;;3.97;2.83;;;;;;;;;;5075986;28;20188;-69
2022/03/11 09:49:48;;;;;;;4.37;2.87;;;9.40;99.90;;;;;;5055896;28;20578;-71
2022/03/11 09:52:15;;;;;;;4.40;4.10;;;9.10;99.90;;;;;;5072268;28;20254;-72
2022/03/11 09:54:41;;;;;;;2.77;2.40;;;9.20;99.90;;;;;;5077781;28;20177;-72
2022/03/11 09:57:07;;;;;;;2.83;2.63;;;9.40;99.90;;;;;;5057475;28;20238;-72
2022/03/11 09:59:33;;;;;;;1.57;1.47;;;9.30;99.90;;;;;;5058629;28;20200;-72
2022/03/11 10:01:58;;;;;;;4.97;3.87;;;9.70;99.90;;;;;;5056933;28;20200;-71
2022/03/11 10:04:25;;;;;;;7.10;5.90;;;9.60;99.90;;;;;;5075227;28;20174;-70
2022/03/11 10:06:52;;;;;;;2.43;2.10;;;9.60;99.90;;;;;;5074272;28;20187;-72
2022/03/11 10:09:17;;;;;;;4.20;3.03;;;9.70;99.90;;;;;;5080460;28;20194;-70
2022/03/11 10:11:52;;;;;;;1.73;1.73;;;9.80;99.90;;;;;;5056682;28;20184;-71
2022/03/11 10:14:30;;;;;;;4.20;2.70;;;9.70;99.90;;;;;;5063471;28;20175;-72
2022/03/11 10:16:56;;;;;;;1.80;1.63;;;9.80;99.90;;;;;;5077006;28;20240;-72
2022/03/11 10:19:22;;;;;;;3.03;2.80;;;9.90;99.90;;;;;;5073966;28;20663;-72
2022/03/11 10:21:50;;;;;;;3.70;3.33;;;10.10;99.90;;;;;;5074782;28;20247;-72
2022/03/11 10:24:20;;;;;;;4.93;3.27;;;10.30;99.90;;;;;;5075663;28;20160;-72
2022/03/11 10:26:49;;;;;;;10.90;5.07;;;10.60;99.90;;;;;;5075850;28;20214;-72
2022/03/11 10:29:27;;;;;;;8.37;3.37;;;10.30;99.90;;;;;;5075920;28;20184;-72
2022/03/11 10:31:56;;;;;;;3.27;3.03;;;10.20;99.90;;;;;;5075932;28;20222;-72
2022/03/11 10:34:29;;;;;;;3.20;2.63;;;10.30;99.90;;;;;;5055790;28;20271;-72
2022/03/11 10:36:56;;;;;;;3.73;3.47;;;10.30;99.90;;;;;;5075090;28;20168;-72
2022/03/11 10:39:25;;;;;;;2.57;2.40;;;10.50;99.90;;;;;;5074290;28;20215;-73
2022/03/11 10:41:53;;;;;;;21.37;5.07;;;10.80;99.90;;;;;;5074768;28;20745;-72
2022/03/11 10:44:25;;;;;;;4.90;3.53;;;10.70;99.90;;;;;;5078034;28;20316;-75
2022/03/11 10:47:14;;;;;;;10.27;2.33;;;10.60;99.90;;;;;;5057664;28;20272;-72
2022/03/11 10:49:51;;;;;;;4.80;3.23;;;10.80;99.90;;;;;;5045539;28;20221;-73
2022/03/11 10:52:30;;;;;;;2.57;2.20;;;10.90;99.90;;;;;;5074886;28;20199;-73
2022/03/11 10:54:56;;;;;;;6.43;4.33;;;10.90;99.90;;;;;;5074739;28;20180;-73
2022/03/11 10:57:36;;;;;;;4.53;4.10;;;11.10;99.90;;;;;;5074731;28;20195;-73
2022/03/11 11:00:24;;;;;;;6.63;4.53;;;11.30;99.90;;;;;;5073370;28;20540;-72
2022/03/11 11:02:54;;;;;;;6.47;4.33;;;11.40;99.90;;;;;;5068102;28;20245;-72
2022/03/11 11:05:21;;;;;;;3.33;1.93;;;11.30;99.90;;;;;;5074035;28;20202;-72
2022/03/11 11:07:48;;;;;;;3.23;1.87;;;11.50;99.90;;;;;;5063818;28;20199;-73
2022/03/11 11:10:16;;;;;;;4.63;3.33;;;11.80;99.90;;;;;;5057308;28;20191;-73
2022/03/11 11:12:42;;;;;;;2.17;2.07;;;11.90;99.90;;;;;;5075277;28;20206;-72
2022/03/11 11:15:09;;;;;;;4.37;2.20;;;11.90;99.90;;;;;;5077822;28;20581;-73
2022/03/11 11:17:40;;;;;;;4.97;4.37;;;11.80;99.90;;;;;;5081441;28;20261;-72
2022/03/11 11:20:20;;;;;;;3.47;2.93;;;11.80;99.90;;;;;;5075254;28;20237;-72
2022/03/11 11:22:48;;;;;;;5.97;3.87;;;12.20;99.90;;;;;;5074752;28;20196;-72
2022/03/11 11:25:16;;;;;;;3.57;3.37;;;12.50;99.90;;;;;;5061355;28;20689;-72
2022/03/11 11:27:43;;;;;;;6.03;3.20;;;12.40;99.90;;;;;;5075065;28;20707;-71
2022/03/11 11:30:09;;;;;;;2.67;2.53;;;12.40;99.90;;;;;;5056360;28;20181;-73
2022/03/11 11:32:38;;;;;;;4.10;3.77;;;12.50;99.90;;;;;;5056927;28;20238;-72
2022/03/11 11:35:22;;;;;;;3.47;3.17;;;12.70;99.90;;;;;;5057092;28;20214;-72
2022/03/11 11:37:48;;;;;;;4.53;3.13;;;12.90;99.90;;;;;;5056938;28;20184;-73
2022/03/11 11:40:52;;;;;;;6.80;4.37;;;13.00;99.90;;;;;;5058412;28;20215;-73
2022/03/11 11:43:28;;;;;;;5.43;2.97;;;12.90;99.90;;;;;;5037380;28;20236;-72
2022/03/11 11:46:05;;;;;;;1.63;1.53;;;13.10;99.90;;;;;;5080026;28;20179;-73
2022/03/11 11:48:45;;;;;;;24.13;5.97;;;13.30;99.90;;;;;;5056862;28;20624;-73
2022/03/11 11:51:12;;;;;;;6.05;4.10;;;13.30;99.90;;;;;;5075153;28;20412;-74
2022/03/11 11:53:53;;;;;;;7.97;4.03;;;13.60;99.90;;;;;;5055448;28;20196;-72
2022/03/11 11:56:39;;;;;;;5.03;2.57;;;14.10;99.90;;;;;;5062109;28;20198;-71
2022/03/11 11:59:10;;;;;;;3.60;2.97;;;14.30;99.90;;;;;;5058807;28;20207;-71
2022/03/11 12:01:55;;;;;;;4.43;2.77;;;14.30;99.90;;;;;;5056603;28;20180;-70
2022/03/11 12:04:35;;;;;;;3.13;2.87;;;13.80;99.90;;;;;;5074460;28;20176;-69
2022/03/11 12:07:14;;;;;;;6.00;4.40;;;14.00;99.90;;;;;;5055851;28;20233;-72
2022/03/11 12:09:47;;;;;;;3.87;3.10;;;14.20;99.90;;;;;;5077311;28;20180;-71
2022/03/11 12:12:19;;;;;;;9.33;1.73;;;14.10;99.90;;;;;;5053469;28;20253;-72
2022/03/11 12:14:56;;;;;;;3.33;3.03;;;14.00;99.90;;;;;;5057056;28;20643;-72
2022/03/11 12:17:41;;;;;;;6.53;2.83;;;14.10;99.90;;;;;;5074262;28;20168;-72
2022/03/11 12:20:34;;;;;;;2.20;2.00;;;13.90;99.90;;;;;;5075805;28;20215;-72
2022/03/11 12:23:09;;;;;;;10.87;4.90;;;14.20;99.90;;;;;;5078000;28;20205;-71
2022/03/11 12:25:36;;;;;;;8.90;4.10;;;14.50;99.90;;;;;;5074240;28;20172;-71
2022/03/11 12:28:27;;;;;;;3.30;3.03;;;14.70;99.90;;;;;;5075542;28;20172;-72
2022/03/11 12:31:01;;;;;;;10.15;4.38;;;14.50;99.90;;;;;;5059574;28;20418;-71
2022/03/11 12:33:35;;;;;;;6.57;3.25;;;15.10;99.90;;;;;;5078511;28;20399;-71
2022/03/11 12:36:04;;;;;;;4.77;3.40;;;14.80;99.30;;;;;;5078897;28;20188;-72
2022/03/11 12:38:37;;;;;;;4.80;3.53;;;15.00;99.00;;;;;;5077208;28;20208;-72
2022/03/11 12:41:10;;;;;;;12.43;5.80;;;15.00;98.20;;;;;;5075978;28;20168;-71
2022/03/11 12:43:37;;;;;;;3.00;2.23;;;14.70;97.40;;;;;;5076630;28;20222;-72
2022/03/11 12:46:04;;;;;;;3.73;2.73;;;14.30;98.10;;;;;;5059967;28;20183;-72
2022/03/11 12:48:36;;;;;;;9.30;2.60;;;14.40;99.20;;;;;;5074790;28;20173;-72
2022/03/11 12:51:03;;;;;;;7.73;3.67;;;15.00;98.20;;;;;;5058729;28;20176;-71
2022/03/11 12:53:29;;;;;;;3.07;2.67;;;15.20;97.60;;;;;;5074748;28;20279;-73
2022/03/11 12:55:57;;;;;;;1.13;1.07;;;15.10;96.40;;;;;;5066021;28;20281;-72
2022/03/11 12:58:31;;;;;;;3.23;3.00;;;15.00;98.70;;;;;;5077325;28;20644;-72